createdAt,value
2023-01-11T00:01:31.313Z,102122.34
2023-01-11T00:03:58.857Z,102119.25
2023-01-11T00:06:25.795Z,102128.06
2023-01-11T00:08:52.718Z,102126.69
2023-01-11T00:11:19.801Z,102129.81
2023-01-11T00:13:46.785Z,102137.25
2023-01-11T00:16:14.009Z,102138.03
2023-01-11T00:18:41.358Z,102131.53
2023-01-11T00:21:09.060Z,102135.91
2023-01-11T00:23:37.409Z,102139.94
2023-01-11T00:26:11.341Z,102140.16
2023-01-11T00:28:38.298Z,102142.94
2023-01-11T00:31:05.821Z,102140.00
2023-01-11T00:33:33.134Z,102138.69
2023-01-11T00:36:00.029Z,102131.63
2023-01-11T00:38:47.014Z,102127.72
2023-01-11T00:41:34.641Z,102137.78
2023-01-11T00:44:20.944Z,102134.31
2023-01-11T00:47:06.876Z,102134.38
2023-01-11T00:49:33.792Z,102143.81
2023-01-11T00:52:00.737Z,102152.97
2023-01-11T00:54:27.916Z,102151.84
2023-01-11T00:56:54.881Z,102156.25
2023-01-11T00:59:21.873Z,102150.38
2023-01-11T01:01:48.665Z,102143.47
2023-01-11T01:04:15.525Z,102144.03
2023-01-11T01:06:42.524Z,102147.16
2023-01-11T01:09:09.703Z,102159.91
2023-01-11T01:11:36.651Z,102166.50
2023-01-11T01:14:22.537Z,102147.16
2023-01-11T01:16:49.882Z,102158.78
2023-01-11T01:19:16.819Z,102155.50
2023-01-11T01:21:43.731Z,102149.69
2023-01-11T01:24:10.717Z,102163.66
2023-01-11T01:26:37.488Z,102171.00
2023-01-11T01:29:04.541Z,102166.50
2023-01-11T01:31:31.379Z,102179.72
2023-01-11T01:33:58.508Z,102176.16
2023-01-11T01:36:25.518Z,102152.94
2023-01-11T01:38:52.413Z,102149.72
2023-01-11T01:41:19.444Z,102149.22
2023-01-11T01:43:55.666Z,102150.06
2023-01-11T01:46:26.917Z,102146.28
2023-01-11T01:49:17.464Z,102149.09
2023-01-11T01:51:52.095Z,102167.94
2023-01-11T01:54:24.995Z,102162.94
2023-01-11T01:57:00.662Z,102161.66
2023-01-11T01:59:29.808Z,102162.34
2023-01-11T02:01:57.297Z,102156.81
2023-01-11T02:04:30.996Z,102149.25
2023-01-11T02:07:08.180Z,102144.19
2023-01-11T02:10:01.629Z,102144.00
2023-01-11T02:12:32.168Z,102144.81
2023-01-11T02:15:03.328Z,102133.00
2023-01-11T02:17:30.189Z,102106.13
2023-01-11T02:20:00.707Z,102112.63
2023-01-11T02:22:53.652Z,102110.59
2023-01-11T02:25:26.492Z,102112.34
2023-01-11T02:28:10.672Z,102119.69
2023-01-11T02:30:46.873Z,102111.41
2023-01-11T02:33:22.871Z,102114.19
2023-01-11T02:35:54.492Z,102105.75
2023-01-11T02:38:41.830Z,102101.94
2023-01-11T02:41:57.906Z,102092.16
2023-01-11T02:44:54.727Z,102091.44
2023-01-11T02:47:30.593Z,102104.13
2023-01-11T02:50:01.966Z,102114.22
2023-01-11T02:52:39.573Z,102092.53
2023-01-11T02:55:09.613Z,102090.69
2023-01-11T02:57:39.853Z,102097.38
2023-01-11T03:00:10.069Z,102097.16
2023-01-11T03:02:37.167Z,102094.00
2023-01-11T03:05:11.785Z,102091.47
2023-01-11T03:08:07.211Z,102094.13
2023-01-11T03:11:08.626Z,102098.25
2023-01-11T03:14:01.721Z,102081.56
2023-01-11T03:16:39.497Z,102077.81
2023-01-11T03:19:36.919Z,102085.66
2023-01-11T03:22:26.351Z,102091.41
2023-01-11T03:25:02.037Z,102102.66
2023-01-11T03:27:37.938Z,102113.63
2023-01-11T03:30:19.767Z,102122.88
2023-01-11T03:33:01.916Z,102124.97
2023-01-11T03:35:55.442Z,102116.75
2023-01-11T03:38:35.834Z,102111.34
2023-01-11T03:41:08.320Z,102110.25
2023-01-11T03:43:40.278Z,102118.47
2023-01-11T03:46:12.309Z,102125.66
2023-01-11T03:48:46.337Z,102117.50
2023-01-11T03:51:18.694Z,102119.84
2023-01-11T03:53:49.150Z,102116.56
2023-01-11T03:56:20.276Z,102107.50
2023-01-11T03:58:47.097Z,102087.56
2023-01-11T04:01:14.205Z,102089.25
2023-01-11T04:03:41.248Z,102094.50
2023-01-11T04:06:11.419Z,102090.88
2023-01-11T04:08:38.263Z,102082.22
2023-01-11T04:11:05.553Z,102086.19
2023-01-11T04:13:34.173Z,102094.31
2023-01-11T04:16:01.139Z,102091.25
2023-01-11T04:18:28.207Z,102107.09
2023-01-11T04:20:55.328Z,102117.00
2023-01-11T04:23:22.135Z,102114.25
2023-01-11T04:25:49.025Z,102118.75
2023-01-11T04:28:15.904Z,102118.09
2023-01-11T04:30:42.663Z,102103.13
2023-01-11T04:33:13.377Z,102126.03
2023-01-11T04:35:40.816Z,102144.44
2023-01-11T04:38:07.623Z,102145.19
2023-01-11T04:40:34.496Z,102138.13
2023-01-11T04:43:02.453Z,102137.78
2023-01-11T04:45:30.371Z,102135.59
2023-01-11T04:47:58.399Z,102126.47
2023-01-11T04:50:26.790Z,102122.28
2023-01-11T04:52:54.125Z,102124.47
2023-01-11T04:55:20.929Z,102119.06
2023-01-11T04:57:47.852Z,102129.16
2023-01-11T05:00:16.061Z,102111.91
2023-01-11T05:02:43.401Z,102132.63
2023-01-11T05:05:11.621Z,102113.66
2023-01-11T05:07:39.427Z,102138.00
2023-01-11T05:10:06.768Z,102140.66
2023-01-11T05:12:33.585Z,102131.19
2023-01-11T05:15:00.457Z,102130.44
2023-01-11T05:17:27.377Z,102134.28
2023-01-11T05:19:54.394Z,102130.66
2023-01-11T05:22:21.175Z,102132.50
2023-01-11T05:24:47.934Z,102113.03
2023-01-11T05:27:14.746Z,102120.59
2023-01-11T05:29:41.507Z,102132.59
2023-01-11T05:32:08.418Z,102138.31
2023-01-11T05:34:35.369Z,102108.66
2023-01-11T05:37:02.139Z,102121.66
2023-01-11T05:39:29.004Z,102131.22
2023-01-11T05:41:55.734Z,102118.75
2023-01-11T05:44:40.919Z,102103.34
2023-01-11T05:47:07.692Z,102136.16
2023-01-11T05:49:34.587Z,102132.53
2023-01-11T05:52:01.328Z,102128.88
2023-01-11T05:54:28.115Z,102132.41
2023-01-11T05:56:57.826Z,102133.50
2023-01-11T05:59:26.953Z,102129.31
2023-01-11T06:01:53.843Z,102140.44
2023-01-11T06:04:20.737Z,102134.16
2023-01-11T06:06:47.528Z,102139.88
2023-01-11T06:09:14.235Z,102148.25
2023-01-11T06:11:40.948Z,102128.66
2023-01-11T06:14:07.789Z,102138.34
2023-01-11T06:16:34.545Z,102139.88
2023-01-11T06:19:01.281Z,102122.41
2023-01-11T06:21:27.988Z,102136.69
2023-01-11T06:23:55.454Z,102147.38
2023-01-11T06:26:23.286Z,102154.19
2023-01-11T06:28:51.162Z,102153.22
2023-01-11T06:31:18.642Z,102145.19
2023-01-11T06:33:46.440Z,102148.16
2023-01-11T06:36:14.447Z,102153.97
2023-01-11T06:38:41.996Z,102142.75
2023-01-11T06:41:09.276Z,102142.69
2023-01-11T06:43:38.099Z,102145.88
2023-01-11T06:46:05.493Z,102157.31
2023-01-11T06:48:32.363Z,102152.25
2023-01-11T06:50:59.309Z,102139.91
2023-01-11T06:53:28.806Z,102152.78
2023-01-11T06:55:58.478Z,102158.41
2023-01-11T06:58:26.594Z,102144.41
2023-01-11T07:00:55.558Z,102148.91
2023-01-11T07:03:24.596Z,102145.94
2023-01-11T07:05:52.761Z,102142.75
2023-01-11T07:08:19.989Z,102137.91
2023-01-11T07:10:47.511Z,102149.88
2023-01-11T07:13:17.693Z,102147.78
2023-01-11T07:15:46.145Z,102145.34
2023-01-11T07:18:13.042Z,102150.63
2023-01-11T07:20:41.021Z,102149.69
2023-01-11T07:23:07.853Z,102148.53
2023-01-11T07:25:34.971Z,102144.47
2023-01-11T07:28:04.987Z,102141.78
2023-01-11T07:30:47.855Z,102157.19
2023-01-11T07:33:21.702Z,102159.41
2023-01-11T07:35:49.696Z,102156.50
2023-01-11T07:38:16.794Z,102162.41
2023-01-11T07:40:43.708Z,102161.06
2023-01-11T07:43:18.326Z,102167.34
2023-01-11T07:45:50.490Z,102161.56
2023-01-11T07:48:25.416Z,102156.22
2023-01-11T07:50:54.388Z,102161.13
2023-01-11T07:53:21.507Z,102156.44
2023-01-11T07:55:48.237Z,102149.50
2023-01-11T07:58:15.790Z,102153.38
2023-01-11T08:00:43.131Z,102149.38
2023-01-11T08:03:10.580Z,102156.03
2023-01-11T08:05:37.687Z,102160.88
2023-01-11T08:08:05.493Z,102154.72
2023-01-11T08:10:32.902Z,102153.84
2023-01-11T08:13:18.434Z,102146.63
2023-01-11T08:15:45.354Z,102156.03
2023-01-11T08:18:12.739Z,102151.31
2023-01-11T08:20:40.266Z,102153.09
2023-01-11T08:23:09.614Z,102156.69
2023-01-11T08:25:36.993Z,102161.09
2023-01-11T08:28:06.266Z,102152.84
2023-01-11T08:30:33.319Z,102160.06
2023-01-11T08:33:04.248Z,102157.81
2023-01-11T08:35:32.489Z,102160.94
2023-01-11T08:37:59.228Z,102161.22
2023-01-11T08:40:25.988Z,102155.91
2023-01-11T08:42:56.962Z,102161.06
2023-01-11T08:45:24.124Z,102167.59
2023-01-11T08:47:52.018Z,102173.25
2023-01-11T08:50:19.701Z,102175.16
2023-01-11T08:52:47.652Z,102165.59
2023-01-11T08:55:14.495Z,102180.00
2023-01-11T08:57:41.227Z,102175.78
2023-01-11T09:00:09.292Z,102184.41
2023-01-11T09:02:36.208Z,102193.91
2023-01-11T09:05:03.299Z,102194.25
2023-01-11T09:07:30.094Z,102205.94
2023-01-11T09:09:56.839Z,102203.38
2023-01-11T09:12:23.747Z,102212.94
2023-01-11T09:14:50.440Z,102215.50
2023-01-11T09:17:18.978Z,102209.34
2023-01-11T09:19:45.734Z,102224.19
2023-01-11T09:22:12.557Z,102213.25
2023-01-11T09:24:39.281Z,102211.94
2023-01-11T09:27:06.344Z,102214.66
2023-01-11T09:29:35.539Z,102194.63
2023-01-11T09:32:04.020Z,102199.03
2023-01-11T09:34:30.783Z,102200.56
2023-01-11T09:37:00.629Z,102199.06
2023-01-11T09:39:27.831Z,102183.16
2023-01-11T09:42:11.788Z,102194.59
2023-01-11T09:44:50.845Z,102197.75
2023-01-11T09:47:29.561Z,102187.88
2023-01-11T09:49:59.490Z,102185.03
2023-01-11T09:52:30.187Z,102180.56
2023-01-11T09:54:59.085Z,102172.31
2023-01-11T09:57:46.353Z,102181.06
2023-01-11T10:00:47.695Z,102169.28
2023-01-11T10:03:36.202Z,102171.50
2023-01-11T10:06:20.316Z,102159.72
2023-01-11T10:18:32.084Z,102150.06
2023-01-11T10:18:32.088Z,102147.53
2023-01-11T10:21:15.102Z,102126.78
2023-01-11T10:23:47.503Z,102135.66
2023-01-11T10:26:27.469Z,102141.41
2023-01-11T10:29:17.320Z,102130.09
2023-01-11T10:32:13.763Z,102122.44
2023-01-11T10:35:00.804Z,102127.66
2023-01-11T10:37:56.136Z,102128.25
2023-01-11T10:40:40.562Z,102133.16
2023-01-11T10:43:20.274Z,102125.59
2023-01-11T10:45:55.774Z,102127.53
2023-01-11T10:48:34.593Z,102129.50
2023-01-11T10:51:27.426Z,102140.16
2023-01-11T10:54:15.468Z,102145.84
2023-01-11T10:57:09.013Z,102144.19
2023-01-11T10:59:50.913Z,102137.31
2023-01-11T11:02:36.181Z,102143.34
2023-01-11T11:05:27.335Z,102143.06
2023-01-11T11:08:43.314Z,102131.03
2023-01-11T11:11:22.633Z,102140.16
2023-01-11T11:14:31.220Z,102126.06
2023-01-11T11:17:18.302Z,102118.28
2023-01-11T11:19:45.209Z,102104.09
2023-01-11T11:22:12.684Z,102099.84
2023-01-11T11:24:46.732Z,102101.53
2023-01-11T11:27:41.993Z,102109.28
2023-01-11T11:30:14.090Z,102103.91
2023-01-11T11:32:51.600Z,102099.47
2023-01-11T11:35:40.703Z,102103.31
2023-01-11T11:38:23.648Z,102090.00
2023-01-11T11:41:04.097Z,102087.28
2023-01-11T11:43:33.048Z,102086.63
2023-01-11T11:46:02.048Z,102084.59
2023-01-11T11:48:32.205Z,102082.66
2023-01-11T11:51:04.729Z,102093.53
2023-01-11T11:53:46.118Z,102088.69
2023-01-11T11:56:21.357Z,102082.53
2023-01-11T11:58:48.387Z,102073.53
2023-01-11T12:01:26.220Z,102086.13
2023-01-11T12:03:57.434Z,102086.44
2023-01-11T12:06:27.891Z,102072.13
2023-01-11T12:08:55.846Z,102079.56
2023-01-11T12:11:35.826Z,102065.72
2023-01-11T12:14:04.395Z,102057.66
2023-01-11T12:16:36.642Z,102062.31
2023-01-11T12:19:03.602Z,102064.00
2023-01-11T12:21:30.571Z,102062.91
2023-01-11T12:24:17.446Z,102052.84
2023-01-11T12:27:01.088Z,102057.66
2023-01-11T12:29:39.908Z,102048.84
2023-01-11T12:32:18.925Z,102043.66
2023-01-11T12:35:04.287Z,102035.06
2023-01-11T12:38:05.311Z,102040.94
2023-01-11T12:40:43.983Z,102042.34
2023-01-11T12:43:36.798Z,102041.97
2023-01-11T12:46:06.639Z,102027.09
2023-01-11T12:48:39.574Z,102043.22
2023-01-11T12:52:03.985Z,102056.66
2023-01-11T12:55:03.092Z,102055.31
2023-01-11T12:57:56.509Z,102051.91
2023-01-11T13:00:45.552Z,102049.13
2023-01-11T13:03:38.140Z,102055.69
2023-01-11T13:06:39.777Z,102049.50
2023-01-11T13:09:29.204Z,102047.59
2023-01-11T13:12:26.084Z,102034.31
2023-01-11T13:15:20.031Z,102023.88
2023-01-11T13:17:46.765Z,102014.19
2023-01-11T13:20:34.273Z,102009.06
2023-01-11T13:23:19.425Z,102009.78
2023-01-11T13:25:49.453Z,101995.56
2023-01-11T13:28:40.540Z,101988.91
2023-01-11T13:31:11.195Z,101979.41
2023-01-11T13:33:43.893Z,101984.38
2023-01-11T13:36:23.263Z,101980.50
2023-01-11T13:39:16.712Z,101979.88
2023-01-11T13:41:49.052Z,101975.16
2023-01-11T13:44:28.031Z,101976.47
2023-01-11T13:47:19.352Z,101966.25
2023-01-11T13:50:04.183Z,101965.31
2023-01-11T13:52:44.222Z,101953.19
2023-01-11T13:55:36.498Z,101965.47
2023-01-11T13:58:10.436Z,101967.50
2023-01-11T14:01:18.838Z,101971.19
2023-01-11T14:03:56.887Z,101975.00
2023-01-11T14:06:34.954Z,101972.78
2023-01-11T14:09:16.823Z,101982.78
2023-01-11T14:12:08.978Z,101970.31
2023-01-11T14:14:51.009Z,101981.47
2023-01-11T14:17:30.034Z,101983.09
2023-01-11T14:20:02.594Z,101984.69
2023-01-11T14:22:32.148Z,101981.41
2023-01-11T14:25:22.775Z,101981.53
2023-01-11T14:28:33.452Z,101960.75
2023-01-11T14:31:12.251Z,101967.69
2023-01-11T14:33:41.853Z,101954.84
2023-01-11T14:36:39.725Z,101954.03
2023-01-11T14:39:30.808Z,101959.72
2023-01-11T14:42:19.026Z,101957.25
2023-01-11T14:45:18.219Z,101959.13
2023-01-11T14:48:06.824Z,101957.97
2023-01-11T14:50:33.605Z,101965.41
2023-01-11T14:53:04.686Z,101959.09
2023-01-11T14:55:34.835Z,101949.03
2023-01-11T14:58:04.981Z,101924.69
2023-01-11T15:00:54.773Z,101927.53
2023-01-11T15:03:21.416Z,101922.53
2023-01-11T15:06:14.804Z,101909.97
2023-01-11T15:09:00.474Z,101906.81
2023-01-11T15:11:30.066Z,101903.06
2023-01-11T15:14:03.673Z,101888.50
2023-01-11T15:16:54.926Z,101892.88
2023-01-11T15:19:29.555Z,101883.91
2023-01-11T15:21:58.658Z,101879.72
2023-01-11T15:24:43.073Z,101877.41
2023-01-11T15:27:42.398Z,101884.34
2023-01-11T15:30:29.481Z,101868.06
2023-01-11T15:33:18.480Z,101870.81
2023-01-11T15:35:57.568Z,101868.41
2023-01-11T15:38:37.078Z,101870.81
2023-01-11T15:41:29.418Z,101884.44
2023-01-11T15:44:29.125Z,101884.19
2023-01-11T15:47:24.686Z,101887.34
2023-01-11T15:50:16.333Z,101877.81
2023-01-11T15:53:13.460Z,101886.22
2023-01-11T15:56:04.519Z,101881.19
2023-01-11T15:58:54.450Z,101876.81
2023-01-11T16:01:25.342Z,101884.53
2023-01-11T16:04:01.571Z,101886.22
2023-01-11T16:06:46.455Z,101897.38
2023-01-11T16:09:57.825Z,101892.28
2023-01-11T16:12:49.830Z,101889.78
2023-01-11T16:15:25.872Z,101882.09
2023-01-11T16:17:54.039Z,101881.31
2023-01-11T16:20:20.779Z,101871.00
2023-01-11T16:22:58.117Z,101877.75
2023-01-11T16:25:30.332Z,101883.19
2023-01-11T16:27:59.550Z,101892.88
2023-01-11T16:30:28.146Z,101887.72
2023-01-11T16:33:15.312Z,101883.06
2023-01-11T16:35:42.610Z,101881.47
2023-01-11T16:38:17.103Z,101878.81
2023-01-11T16:40:49.100Z,101885.75
2023-01-11T16:43:31.509Z,101883.19
2023-01-11T16:45:58.641Z,101879.69
2023-01-11T16:48:29.978Z,101881.66
2023-01-11T16:51:04.797Z,101873.72
2023-01-11T16:53:37.594Z,101876.25
2023-01-11T16:56:09.188Z,101875.53
2023-01-11T16:58:38.575Z,101861.44
2023-01-11T17:01:08.111Z,101871.19
2023-01-11T17:03:47.778Z,101868.53
2023-01-11T17:06:15.087Z,101873.66
2023-01-11T17:08:47.575Z,101872.88
2023-01-11T17:11:23.659Z,101872.78
2023-01-11T17:13:56.733Z,101878.63
2023-01-11T17:16:28.100Z,101856.44
2023-01-11T17:18:55.418Z,101852.16
2023-01-11T17:21:27.513Z,101846.28
2023-01-11T17:24:00.479Z,101842.13
2023-01-11T17:26:58.225Z,101813.47
2023-01-11T17:29:34.817Z,101848.19
2023-01-11T17:32:04.580Z,101849.44
2023-01-11T17:34:36.944Z,101853.59
2023-01-11T17:37:10.802Z,101855.78
2023-01-11T17:39:43.516Z,101867.81
2023-01-11T17:42:32.858Z,101864.09
2023-01-11T17:45:15.946Z,101856.03
2023-01-11T17:47:51.706Z,101859.44
2023-01-11T17:50:45.468Z,101859.59
2023-01-11T17:53:21.986Z,101866.13
2023-01-11T17:56:07.355Z,101872.66
2023-01-11T17:58:35.943Z,101871.06
2023-01-11T18:01:08.858Z,101881.53
2023-01-11T18:03:52.718Z,101891.16
2023-01-11T18:06:42.575Z,101892.63
2023-01-11T18:09:24.518Z,101896.78
2023-01-11T18:11:53.059Z,101883.59
2023-01-11T18:14:25.597Z,101895.25
2023-01-11T18:17:02.122Z,101892.41
2023-01-11T18:19:41.562Z,101889.81
2023-01-11T18:22:32.238Z,101894.06
2023-01-11T18:25:04.272Z,101886.09
2023-01-11T18:27:35.676Z,101884.69
2023-01-11T18:30:07.970Z,101877.91
2023-01-11T18:32:43.656Z,101884.00
2023-01-11T18:35:19.041Z,101877.91
2023-01-11T18:37:46.565Z,101894.50
2023-01-11T18:40:15.141Z,101898.75
2023-01-11T18:42:43.732Z,101891.91
2023-01-11T18:45:11.852Z,101883.38
2023-01-11T18:47:38.753Z,101875.69
2023-01-11T18:50:06.236Z,101863.97
2023-01-11T18:52:33.296Z,101864.22
2023-01-11T18:55:00.166Z,101857.66
2023-01-11T18:57:27.063Z,101864.44
2023-01-11T18:59:55.635Z,101872.16
2023-01-11T19:02:27.056Z,101871.38
2023-01-11T19:04:56.304Z,101868.13
2023-01-11T19:07:25.358Z,101858.78
2023-01-11T19:09:54.921Z,101848.63
2023-01-11T19:12:22.278Z,101843.50
2023-01-11T19:14:49.268Z,101833.94
2023-01-11T19:17:16.222Z,101841.47
2023-01-11T19:19:43.444Z,101839.19
2023-01-11T19:22:11.753Z,101833.28
2023-01-11T19:24:39.907Z,101834.75
2023-01-11T19:27:10.029Z,101831.22
2023-01-11T19:29:36.991Z,101828.66
2023-01-11T19:32:03.985Z,101832.06
2023-01-11T19:34:33.918Z,101834.72
2023-01-11T19:37:01.224Z,101827.69
2023-01-11T19:39:28.234Z,101826.16
2023-01-11T19:42:00.004Z,101820.28
2023-01-11T19:44:33.570Z,101813.22
2023-01-11T19:47:11.533Z,101803.38
2023-01-11T19:49:40.523Z,101806.03
2023-01-11T19:52:14.396Z,101804.16
2023-01-11T19:54:43.473Z,101805.50
2023-01-11T19:57:18.121Z,101808.81
2023-01-11T19:59:45.337Z,101809.81
2023-01-11T20:02:13.942Z,101806.31
2023-01-11T20:04:41.385Z,101821.72
2023-01-11T20:07:15.697Z,101818.22
2023-01-11T20:09:43.689Z,101827.78
2023-01-11T20:12:15.761Z,101829.47
2023-01-11T20:14:44.980Z,101819.97
2023-01-11T20:17:12.627Z,101810.09
2023-01-11T20:19:41.876Z,101833.50
2023-01-11T20:22:20.693Z,101842.44
2023-01-11T20:37:55.336Z,101867.84
2023-01-11T20:40:22.738Z,101871.91
2023-01-11T20:42:49.759Z,101870.09
2023-01-11T20:45:16.975Z,101880.56
2023-01-11T20:47:44.623Z,101858.91
2023-01-11T20:50:11.873Z,101853.78
2023-01-11T20:52:39.261Z,101846.97
2023-01-11T20:55:07.386Z,101857.44
2023-01-11T20:57:34.868Z,101866.69
2023-01-11T21:00:02.009Z,101868.25
2023-01-11T21:02:29.123Z,101859.63
2023-01-11T21:04:57.232Z,101859.38
2023-01-11T21:07:24.517Z,101866.25
2023-01-11T21:09:51.505Z,101864.50
2023-01-11T21:12:19.664Z,101866.75
2023-01-11T21:14:46.535Z,101876.88
2023-01-11T21:17:13.657Z,101869.47
2023-01-11T21:19:40.999Z,101872.59
2023-01-11T21:22:08.217Z,101869.03
2023-01-11T21:24:38.768Z,101844.34
2023-01-11T21:27:09.107Z,101842.72
2023-01-11T21:29:36.490Z,101845.06
2023-01-11T21:32:06.677Z,101845.84
2023-01-11T21:34:33.874Z,101847.41
2023-01-11T21:37:00.831Z,101843.13
2023-01-11T21:39:27.915Z,101856.69
2023-01-11T21:42:01.387Z,101846.19
2023-01-11T21:44:31.889Z,101859.72
2023-01-11T21:46:59.619Z,101875.69
2023-01-11T21:49:26.615Z,101874.00
2023-01-11T21:51:53.996Z,101879.91
2023-01-11T21:54:21.337Z,101891.31
2023-01-11T21:56:51.599Z,101903.31
2023-01-11T21:59:18.599Z,101903.25
2023-01-11T22:01:46.472Z,101906.63
2023-01-11T22:04:14.944Z,101909.97
2023-01-11T22:06:46.435Z,101920.16
2023-01-11T22:09:13.641Z,101914.34
2023-01-11T22:11:40.509Z,101918.72
2023-01-11T22:14:08.923Z,101918.88
2023-01-11T22:16:36.923Z,101909.97
2023-01-11T22:19:06.313Z,101917.78
2023-01-11T22:21:33.688Z,101915.19
2023-01-11T22:24:00.615Z,101910.94
2023-01-11T22:26:33.427Z,101913.50
2023-01-11T22:29:13.022Z,101916.78
2023-01-11T22:31:43.102Z,101920.28
2023-01-11T22:34:10.904Z,101924.81
2023-01-11T22:36:38.194Z,101923.91
2023-01-11T22:39:05.206Z,101923.84
2023-01-11T22:41:32.832Z,101906.38
2023-01-11T22:43:59.652Z,101902.03
2023-01-11T22:46:27.501Z,101910.97
2023-01-11T22:48:54.252Z,101906.50
2023-01-11T22:51:23.695Z,101915.81
2023-01-11T22:53:51.948Z,101922.75
2023-01-11T22:56:24.093Z,101914.53
2023-01-11T22:58:54.767Z,101926.69
2023-01-11T23:01:24.589Z,101923.03
2023-01-11T23:03:53.263Z,101924.56
2023-01-11T23:06:28.883Z,101918.38
2023-01-11T23:09:01.479Z,101928.59
2023-01-11T23:11:49.997Z,101916.78
2023-01-11T23:14:19.092Z,101915.81
2023-01-11T23:16:48.114Z,101908.28
2023-01-11T23:19:17.582Z,101905.97
2023-01-11T23:21:48.633Z,101905.19
2023-01-11T23:24:17.167Z,101899.34
2023-01-11T23:26:45.142Z,101891.81
2023-01-11T23:29:12.375Z,101886.09
2023-01-11T23:31:39.245Z,101882.72
2023-01-11T23:34:09.275Z,101887.66
2023-01-11T23:36:39.054Z,101877.44
2023-01-11T23:39:07.736Z,101868.16
2023-01-11T23:41:53.485Z,101863.19
2023-01-11T23:44:20.669Z,101854.47
2023-01-11T23:47:05.847Z,101847.72
2023-01-11T23:49:32.945Z,101828.19
2023-01-11T23:52:00.528Z,101805.44
2023-01-11T23:54:30.154Z,101786.44
2023-01-11T23:57:00.169Z,101770.47
2023-01-11T23:59:27.462Z,101749.41
